Kimball, Tennessee
Current Conditions -  °F | °C
As of 7:53 AM on Wednesday 28 Jan 2015 (Local Time) from KCHA Reporting Station
Scattered Clouds Scattered Clouds  
Wind Chill: 26°   Ceiling: Unl
Heat Index: 33°   Visibility: 10mi
Dew Point: 22°   Wind: 8mph
Humidity: 64%   Direction: 20°NNE
Pressure: 30.33"   Gusts: NA
Location:  35.0651°N, 85.6204°W
Report Text: KCHA 281353Z 02007KT 10SM SCT030 01/M06 A3033 RMK AO2 SLP275 T00061056
Loading
Personal Weather Stations






























Interactive Weather Map New forecast layout! Learn more

10-Day Weather Forecast

Advertisements
Track Severe Weather on mobile